Locust Grove, VA (22508)

1:32 AM EDT on July 29, 2015 (GMT -0400)
lakeview and flat run rd, LOW | | Change Station
CLOSE
Current Station
Personal Weather Station
Location: Locust Grove, VA
Elevation: 413 ft
Nearby Weather Stations

Elev 413 ft 38.32 °N, 77.78 °W | Updated 1 second ago

Overcast
Overcast
73.0 °F
Feels Like 73.0 °F
N
0.0
Wind Variable Wind from SW
Gusts 0.0 mph

Today
High -- | Low -- °F
--% Chance of Precip.
Yesterday
High -- | Low -- °F
Precip. -- in
6:10 AM 8:24 PM
Waxing Gibbous, 93% visible
Pressure 30.02 in
Visibility 4.0 miles
Clouds Overcast 500 ft
Dew Point 73 °F
Humidity 99%
Rainfall 0.00 in
Snow Depth Not available.
UV 0.0 out of 12
Pollen 4.60 out of 12
Air Quality Not available.
Flu Activity Not available.
METAR KOMH 290515Z AUTO 00000KT 4SM BR OVC005 23/22 A3002 RMK AO2

More Conditions Fewer Conditions

Pressure 30.02 in
Visibility 4.0 miles
Clouds Overcast 500 ft
Dew Point 73 °F
Humidity 99%
Rainfall 0.00 in
Snow Depth Not available.
UV 0.0 out of 12
Pollen 4.60 out of 12
Air Quality Not available.
Flu Activity Not available.
METAR KOMH 290515Z AUTO 00000KT 4SM BR OVC005 23/22 A3002 RMK AO2

More Conditions Fewer Conditions

Nowcast | as of 1:21 am EDT on July 29, 2015

Locally dense fog will continue over north-central Virginia through the early morning hours. Visibility will be reduced to a quarter mile or less in particularly fog prone areas. When driving in fog use low-beam headlights and maintain distance with nearby vehicles.

×

10-Day Weather Forecast

×

Almanac

Astronomy

Jul. 29, 2015 Rise Set
Actual Time
Civil Twilight
Nautical Twilight
Astronomical Twilight
Moon
Length of Visible Light
Length of Day
Tomorrow will be .
, % of the Moon is Illuminated

Today's Extremes

State Highs State Lows

Community

WunderPhotos

Upload Photos

1,842,059 photos uploaded!

WunderBlogs® & News

Nearby

Air Quality

  Air Quality AQ Index Pollutant
Not available.

Snow Depth

Station Depth Elevation

Earthquake Activity

City Distance Mag. Time & Date
Minimum magnitude displayed is 2.5.

Coastal Water Temperatures

Place Temperature

Stations

Nearby Weather Stations

Station Location Temp. Windchill Dew Point Humidity Wind Precip. Elev Updated Type